Pagina principală
METAR-TAF:

METAR-TAF

Aeroporturi :

Vicksburg Tallulah Regional Airport

Tallulah-Vicksburg, Louisiana, Statele Unite ale Americii

Latitudine: 32-20-53N, longitudine: 091-01-48W, elevație: 26 m

Observații meteo curente

Raportul a fost făcut în urmă cu 39 de minute, la 00:53 UTC
Vânt 3 kt de la Est/Nord-est
Temperatură 26°C
Umiditate 84%
Presiune 1016 hPa
Vizibilitate: 16.1 km
Nori puțini la o înălțime de 11000 picior

METAR: KTVR 190053Z AUTO 06003KT 10SM FEW110 26/23 A2999 RMK AO2 RAB08E36 SLP161 P0000 T02610228 $

Ora: 20:32 (01:32 UTC)


TAF: lipsă

Observații și prognoze meteo pentru peste 4.000 de aeroporturi (rapoarte METAR și TAF).

Stațiile disponibile sunt reprezentate pe hartă prin puncte galbene și roșii.

Țineți indicatorul mouse-ului pe punctul dorit pentru a vedea denumirea stației.

Apoi, faceți clic pentru a vedea observațiile și prognozele meteorologice.

Pentru a schimba harta: Pentru mărire, faceți clic pe butoanele verzi cu cruce neagră; pentru micșorare, pe butonul verde cu o liniuță; pentru hărți învecinate, pe săgețile verzi.


METAR-TAF: